Time;durP1;ratioP1;P1;durP2;ratioP2;P2;SDS_P1;SDS_P2;PMS_P1;PMS_P2;Temp;Humidity;BMP_temperature;BMP_pressure;BME280_temperature;BME280_humidity;BME280_pressure;Samples;Min_cycle;Max_cycle;Signal;HPM_P1;HPM_P2
2023/10/03 00:00:13;;;;;;;0.10;0.10;;;;;;;10.52;75.58;99954.63;4958540;28;20059;-68
2023/10/03 00:02:39;;;;;;;0.10;0.10;;;;;;;10.44;76.05;99960.59;4966946;28;20062;-70
2023/10/03 00:05:07;;;;;;;0.10;0.10;;;;;;;10.36;76.51;99951.81;4948910;28;20047;-69
2023/10/03 00:07:37;;;;;;;0.10;0.10;;;;;;;10.29;77.01;99955.91;4954680;28;20078;-71
2023/10/03 00:10:05;;;;;;;0.03;0.03;;;;;;;10.24;77.43;99955.91;4978688;28;20054;-71
2023/10/03 00:12:33;;;;;;;0.10;0.10;;;;;;;10.17;78.14;99961.63;4965197;28;20101;-71
2023/10/03 00:14:58;;;;;;;;;;;;;;;10.09;78.57;99954.75;4968243;28;20541;-69
2023/10/03 00:17:25;;;;;;;0.20;0.20;;;;;;;9.95;78.71;99951.69;4962353;28;19930;-70
2023/10/03 00:19:51;;;;;;;0.05;0.05;;;;;;;9.93;79.04;99951.13;4960881;28;20050;-68
2023/10/03 00:22:17;;;;;;;0.10;0.10;;;;;;;9.96;79.65;99964.25;4966287;28;20043;-70
2023/10/03 00:24:43;;;;;;;0.05;0.05;;;;;;;9.93;80.15;99962.06;4930408;28;20173;-68
2023/10/03 00:27:10;;;;;;;0.10;0.10;;;;;;;9.93;80.92;99964.78;4946243;28;20051;-68
2023/10/03 00:29:40;;;;;;;0.10;0.10;;;;;;;9.96;80.64;99969.72;4952225;28;20050;-71
2023/10/03 00:32:07;;;;;;;0.10;0.10;;;;;;;9.91;80.50;99958.78;4963151;28;20045;-71
2023/10/03 00:34:36;;;;;;;0.00;0.00;;;;;;;9.92;81.11;99966.72;4963469;28;20138;-71
2023/10/03 00:37:02;;;;;;;0.00;0.00;;;;;;;9.91;80.98;99965.06;4951122;28;20082;-71
2023/10/03 00:39:29;;;;;;;0.10;0.10;;;;;;;9.93;80.51;99956.59;4944610;28;20046;-71
2023/10/03 00:41:55;;;;;;;0.10;0.10;;;;;;;9.94;80.20;99950.03;4955695;28;20054;-71
2023/10/03 00:44:22;;;;;;;0.10;0.10;;;;;;;9.92;80.79;99963.16;4961477;28;20046;-71
2023/10/03 00:46:49;;;;;;;0.00;0.00;;;;;;;9.91;80.96;99964.25;4964623;28;20055;-72
2023/10/03 00:49:16;;;;;;;0.10;0.10;;;;;;;9.86;81.42;99961.50;4964995;28;20046;-68
2023/10/03 00:51:45;;;;;;;0.10;0.10;;;;;;;9.89;81.19;99972.69;4973344;28;20530;-69
2023/10/03 00:54:11;;;;;;;0.03;0.03;;;;;;;9.90;80.79;99966.13;4945704;28;20047;-69
2023/10/03 00:56:38;;;;;;;0.10;0.10;;;;;;;9.87;81.03;99963.94;4947242;28;20050;-68
2023/10/03 00:59:08;;;;;;;0.00;0.00;;;;;;;9.83;81.73;99971.03;4928663;29;20134;-68
2023/10/03 01:01:35;;;;;;;0.10;0.10;;;;;;;9.77;82.33;99967.44;4964630;28;20070;-70
2023/10/03 01:04:05;;;;;;;0.10;0.10;;;;;;;9.75;82.61;99963.31;4944934;28;20082;-71
2023/10/03 01:06:31;;;;;;;0.00;0.00;;;;;;;9.70;82.78;99966.03;4949989;28;20162;-71
2023/10/03 01:09:00;;;;;;;0.10;0.10;;;;;;;9.68;82.81;99969.06;4947785;29;20433;-71
2023/10/03 01:11:28;;;;;;;0.10;0.10;;;;;;;9.59;82.96;99957.78;4956263;28;20043;-71
2023/10/03 01:13:59;;;;;;;0.10;0.10;;;;;;;9.53;83.91;99961.59;4964676;28;20078;-70
2023/10/03 01:16:33;;;;;;;0.03;0.03;;;;;;;9.49;84.48;99963.22;4963353;28;20047;-71
2023/10/03 01:19:33;;;;;;;0.10;0.10;;;;;;;9.46;84.60;99961.81;4963032;28;20039;-68
2023/10/03 01:21:54;;;;;;;0.10;0.10;;;;;;;9.46;84.57;99961.81;4959607;28;20050;-68
2023/10/03 01:24:24;;;;;;;0.00;0.00;;;;;;;9.44;84.67;99968.59;4949617;28;20055;-69
2023/10/03 01:26:54;;;;;;;0.10;0.10;;;;;;;9.41;84.90;99967.25;4960320;28;20051;-69
2023/10/03 01:29:21;;;;;;;0.10;0.10;;;;;;;9.43;84.90;99964.25;4944871;29;20047;-68
2023/10/03 01:31:50;;;;;;;0.00;0.00;;;;;;;9.43;84.72;99962.34;4954847;28;20138;-71
2023/10/03 01:34:16;;;;;;;0.10;0.10;;;;;;;9.42;85.02;99965.31;4944051;28;20143;-71
2023/10/03 01:36:42;;;;;;;0.40;0.10;;;;;;;9.39;84.82;99971.31;4956676;28;20050;-70
2023/10/03 01:39:11;;;;;;;0.10;0.10;;;;;;;9.34;85.02;99966.63;4955158;28;20042;-71
2023/10/03 01:41:40;;;;;;;0.10;0.10;;;;;;;9.30;85.39;99974.56;4962985;28;20050;-70
2023/10/03 01:44:07;;;;;;;0.00;0.00;;;;;;;9.26;85.69;99973.41;4964669;28;20053;-67
2023/10/03 01:46:33;;;;;;;0.10;0.10;;;;;;;9.21;86.60;99960.56;4951295;28;20065;-67
2023/10/03 01:49:00;;;;;;;0.00;0.00;;;;;;;9.22;86.88;99970.41;4945061;28;20358;-68
2023/10/03 01:51:26;;;;;;;0.38;0.10;;;;;;;9.22;86.86;99966.84;4961785;28;20047;-67
2023/10/03 01:53:55;;;;;;;0.10;0.10;;;;;;;9.22;86.94;99958.66;4944261;28;20047;-68
2023/10/03 01:56:24;;;;;;;0.10;0.10;;;;;;;9.05;87.12;99943.25;4944187;29;20059;-67
2023/10/03 01:58:54;;;;;;;0.00;0.00;;;;;;;9.11;87.45;99971.41;4958900;28;20089;-69
2023/10/03 02:01:23;;;;;;;0.10;0.10;;;;;;;9.10;87.87;99969.75;4962620;28;20542;-67
2023/10/03 02:03:49;;;;;;;0.10;0.10;;;;;;;9.06;88.08;99966.72;4949579;28;20551;-67
2023/10/03 02:06:16;;;;;;;0.00;0.00;;;;;;;9.07;88.04;99968.38;4957061;28;20459;-68
2023/10/03 02:08:42;;;;;;;0.00;0.00;;;;;;;9.07;88.07;99978.47;4947465;28;20212;-68
2023/10/03 02:11:11;;;;;;;0.00;0.00;;;;;;;9.07;87.82;99970.28;4929915;28;20146;-68
2023/10/03 02:13:40;;;;;;;0.10;0.10;;;;;;;9.07;87.73;99968.38;4944816;28;20102;-68
2023/10/03 02:16:10;;;;;;;0.00;0.00;;;;;;;9.11;87.45;99981.47;4955792;28;20106;-71
2023/10/03 02:18:37;;;;;;;0.00;0.00;;;;;;;9.08;87.32;99975.47;4941335;28;20039;-68
2023/10/03 02:21:04;;;;;;;0.00;0.00;;;;;;;9.12;87.05;99985.84;4945288;28;20051;-68
2023/10/03 02:23:32;;;;;;;0.00;0.00;;;;;;;9.15;86.88;99991.59;4946687;28;20360;-68
2023/10/03 02:26:07;;;;;;;0.10;0.10;;;;;;;9.16;86.87;99982.34;4961656;28;20046;-68
2023/10/03 02:28:36;;;;;;;0.00;0.00;;;;;;;9.25;86.85;99984.59;4948344;28;20059;-68
2023/10/03 02:31:20;;;;;;;0.10;0.10;;;;;;;9.33;86.55;99993.13;4964702;28;20050;-70
2023/10/03 02:33:53;;;;;;;0.00;0.00;;;;;;;9.44;85.77;99993.19;4937996;28;20050;-68
2023/10/03 02:36:29;;;;;;;0.10;0.10;;;;;;;9.48;85.64;100000.56;4933204;28;20038;-68
2023/10/03 02:39:00;;;;;;;0.10;0.10;;;;;;;9.54;85.16;99993.25;4927778;29;20553;-67
2023/10/03 02:41:29;;;;;;;0.05;0.05;;;;;;;9.60;85.01;99999.56;4943955;29;20066;-68
2023/10/03 02:43:55;;;;;;;0.10;0.10;;;;;;;9.69;85.12;100000.72;4944891;28;20518;-67
2023/10/03 02:46:27;;;;;;;0.10;0.10;;;;;;;9.78;85.11;100001.84;4943374;28;20101;-68
2023/10/03 02:48:55;;;;;;;0.10;0.10;;;;;;;9.77;84.77;99988.50;4947603;28;20058;-71
2023/10/03 02:51:23;;;;;;;0.10;0.10;;;;;;;9.87;84.63;100010.38;4954345;28;20066;-71
2023/10/03 02:53:49;;;;;;;;;;;;;;;9.74;83.95;99978.91;4962143;28;20396;-68
2023/10/03 02:56:15;;;;;;;0.00;0.00;;;;;;;9.91;83.10;99992.38;4962743;28;19972;-68
2023/10/03 02:58:42;;;;;;;0.00;0.00;;;;;;;9.88;83.08;99992.91;4949005;28;20059;-69
2023/10/03 03:01:09;;;;;;;0.10;0.10;;;;;;;9.87;83.17;100002.19;4947531;28;20063;-68
2023/10/03 03:03:38;;;;;;;0.10;0.10;;;;;;;9.91;83.04;100006.03;4927462;29;20044;-68
2023/10/03 03:06:10;;;;;;;0.10;0.10;;;;;;;9.91;82.45;100011.50;4954560;28;20139;-68
2023/10/03 03:08:39;;;;;;;0.00;0.00;;;;;;;9.83;82.59;100006.53;4961088;28;20078;-68
2023/10/03 03:11:08;;;;;;;0.10;0.10;;;;;;;9.79;82.27;100022.63;4949095;28;20062;-66
2023/10/03 03:13:36;;;;;;;0.00;0.00;;;;;;;9.59;82.49;99992.47;4965649;28;20050;-68
2023/10/03 03:16:04;;;;;;;0.22;0.10;;;;;;;9.51;82.83;100002.78;4968726;28;20054;-68
2023/10/03 03:18:36;;;;;;;0.10;0.10;;;;;;;9.45;83.30;100001.13;4957870;28;20427;-68
2023/10/03 03:21:07;;;;;;;0.10;0.10;;;;;;;9.47;83.01;99993.47;4969858;28;20047;-68
2023/10/03 03:23:38;;;;;;;0.32;0.10;;;;;;;9.45;82.79;99994.84;4946730;28;20456;-71
2023/10/03 03:26:21;;;;;;;0.00;0.00;;;;;;;9.39;83.34;99995.88;4946116;28;20630;-71
2023/10/03 03:28:52;;;;;;;0.00;0.00;;;;;;;9.36;83.54;99980.84;4947745;28;20859;-71
2023/10/03 03:31:22;;;;;;;0.10;0.10;;;;;;;9.43;83.45;99997.81;4960485;28;20078;-68
2023/10/03 03:33:51;;;;;;;0.00;0.00;;;;;;;9.39;82.73;99993.97;4982820;28;20063;-68
2023/10/03 03:36:21;;;;;;;0.08;0.08;;;;;;;9.27;83.23;99977.78;4966675;28;20077;-71
2023/10/03 03:38:49;;;;;;;0.00;0.00;;;;;;;9.44;83.10;99995.91;4935346;28;20051;-71
2023/10/03 03:41:16;;;;;;;0.10;0.10;;;;;;;9.54;82.73;100003.38;4946702;28;20055;-71
2023/10/03 03:43:43;;;;;;;0.10;0.10;;;;;;;9.59;82.43;100006.13;4946579;28;20110;-70
2023/10/03 03:46:10;;;;;;;0.10;0.10;;;;;;;9.56;81.98;100006.66;4945444;28;20047;-71
2023/10/03 03:48:38;;;;;;;0.00;0.00;;;;;;;9.59;82.80;100009.66;4947797;28;20514;-71
2023/10/03 03:51:11;;;;;;;0.10;0.10;;;;;;;9.75;82.88;100016.03;4931309;29;20146;-72
2023/10/03 03:53:39;;;;;;;0.10;0.10;;;;;;;9.84;82.74;100005.44;4946894;28;20474;-68
2023/10/03 03:56:07;;;;;;;0.10;0.10;;;;;;;9.93;82.18;100017.53;4947571;28;20047;-68
2023/10/03 03:58:36;;;;;;;0.10;0.10;;;;;;;10.01;81.78;100012.63;4956948;28;20051;-68
2023/10/03 04:01:07;;;;;;;0.10;0.10;;;;;;;10.07;81.82;100017.84;4965260;28;20706;-68
2023/10/03 04:03:34;;;;;;;0.10;0.10;;;;;;;10.08;81.70;100013.22;4956302;28;20047;-68
2023/10/03 04:06:01;;;;;;;0.10;0.10;;;;;;;9.96;81.01;100018.88;4954072;28;20043;-67
2023/10/03 04:08:27;;;;;;;0.10;0.10;;;;;;;9.84;81.08;100015.56;4964351;28;20047;-71
2023/10/03 04:10:55;;;;;;;0.10;0.10;;;;;;;9.67;81.57;100016.53;4966605;28;20074;-70
2023/10/03 04:13:21;;;;;;;;;;;;;;;9.53;82.93;100010.72;4955937;28;20043;-71
2023/10/03 04:15:47;;;;;;;0.10;0.10;;;;;;;9.43;84.18;100007.91;4963556;28;19926;-68
2023/10/03 04:18:15;;;;;;;0.08;0.08;;;;;;;9.39;84.85;100009.53;4961615;28;20049;-70
2023/10/03 04:20:44;;;;;;;0.10;0.10;;;;;;;9.34;85.23;100002.13;4965990;28;20054;-71
2023/10/03 04:23:11;;;;;;;0.10;0.10;;;;;;;9.34;85.35;100011.13;4966065;28;20073;-71
2023/10/03 04:25:39;;;;;;;0.10;0.10;;;;;;;9.35;84.73;100004.59;4964134;28;20141;-68
2023/10/03 04:28:11;;;;;;;0.10;0.10;;;;;;;9.36;84.45;100010.84;4966833;28;20051;-68
2023/10/03 04:30:39;;;;;;;0.10;0.10;;;;;;;9.43;84.30;100007.91;4950680;28;20050;-68
2023/10/03 04:33:05;;;;;;;0.10;0.10;;;;;;;9.47;84.53;100006.31;4955082;28;20554;-68
2023/10/03 04:35:32;;;;;;;0.10;0.10;;;;;;;9.51;84.65;100007.44;4952912;28;20057;-71
2023/10/03 04:38:04;;;;;;;0.10;0.10;;;;;;;9.52;84.07;100003.63;4957269;28;20291;-68
2023/10/03 04:40:34;;;;;;;0.10;0.10;;;;;;;9.53;83.42;100007.19;4934963;28;20553;-71
2023/10/03 04:43:11;;;;;;;0.10;0.10;;;;;;;9.48;82.38;100011.50;4960405;28;20047;-70
2023/10/03 04:45:39;;;;;;;0.10;0.10;;;;;;;9.44;82.38;100017.75;4949273;28;20046;-70
2023/10/03 04:48:06;;;;;;;0.10;0.10;;;;;;;9.42;81.94;100009.81;4969993;28;20039;-69
2023/10/03 04:50:35;;;;;;;0.10;0.10;;;;;;;9.37;81.55;100015.25;4939295;28;20053;-68
2023/10/03 04:53:02;;;;;;;0.10;0.10;;;;;;;9.37;81.49;100015.25;4966510;28;20061;-68
2023/10/03 04:55:29;;;;;;;0.10;0.10;;;;;;;9.38;80.79;100016.91;4967567;28;20153;-67
2023/10/03 04:57:55;;;;;;;;;;;;;;;9.39;80.96;100020.44;4603120;28;9999775;-68
2023/10/03 05:00:23;;;;;;;0.10;0.10;;;;;;;9.45;80.47;100022.13;4927028;28;19926;-71
2023/10/03 05:02:52;;;;;;;0.05;0.05;;;;;;;9.45;80.48;100016.69;4946368;28;20054;-68
2023/10/03 05:05:20;;;;;;;0.10;0.10;;;;;;;9.50;80.33;100017.50;4930676;29;20138;-68
2023/10/03 05:07:53;;;;;;;0.10;0.10;;;;;;;9.57;80.18;100019.22;4956999;28;20058;-68
2023/10/03 05:10:20;;;;;;;0.10;0.10;;;;;;;9.57;80.24;100019.22;4955720;28;20625;-68
2023/10/03 05:12:50;;;;;;;0.10;0.10;;;;;;;9.64;80.16;100023.34;4943036;28;20047;-69
2023/10/03 05:15:17;;;;;;;0.10;0.10;;;;;;;9.74;80.01;100028.06;4943306;28;20290;-69
2023/10/03 05:17:49;;;;;;;0.10;0.10;;;;;;;9.82;80.20;100018.53;4962010;28;20069;-69
2023/10/03 05:20:19;;;;;;;0.10;0.10;;;;;;;10.00;79.31;100022.75;4956068;28;20063;-69
2023/10/03 05:22:46;;;;;;;0.10;0.10;;;;;;;10.12;78.41;100016.22;4951633;28;20114;-74
2023/10/03 05:25:17;;;;;;;0.20;0.20;;;;;;;10.17;77.72;100003.41;4937245;28;20042;-72
2023/10/03 05:27:51;;;;;;;0.10;0.10;;;;;;;10.40;76.36;100014.97;4944753;28;20526;-72
2023/10/03 05:30:19;;;;;;;0.10;0.10;;;;;;;10.46;75.58;99980.31;4944194;28;20070;-69
2023/10/03 05:32:47;;;;;;;0.10;0.10;;;;;;;10.99;74.36;100012.13;4942520;28;20129;-68
2023/10/03 05:35:13;;;;;;;0.10;0.10;;;;;;;11.09;73.03;99998.47;4948399;28;20047;-68
2023/10/03 05:37:41;;;;;;;0.10;0.10;;;;;;;11.19;72.54;100011.31;4950218;28;20507;-69
2023/10/03 05:40:12;;;;;;;0.10;0.10;;;;;;;11.06;72.59;100018.97;4951524;28;20047;-68
2023/10/03 05:42:40;;;;;;;0.10;0.10;;;;;;;10.84;73.23;100002.81;4931137;29;20047;-68
2023/10/03 05:45:08;;;;;;;;;;;;;;;10.59;74.18;99989.91;4941366;28;20056;-68
2023/10/03 05:47:35;;;;;;;0.20;0.20;;;;;;;10.53;74.09;99991.81;4942884;28;19959;-69
2023/10/03 05:50:01;;;;;;;0.20;0.20;;;;;;;10.71;74.28;100009.63;4940493;28;20051;-69
2023/10/03 05:52:31;;;;;;;0.10;0.10;;;;;;;10.77;73.96;100015.91;4944918;28;20055;-69
2023/10/03 05:54:59;;;;;;;0.20;0.20;;;;;;;10.80;73.30;100012.66;4948147;28;20051;-69
2023/10/03 05:57:26;;;;;;;0.10;0.10;;;;;;;10.83;73.67;100012.09;4960311;28;20147;-68
2023/10/03 05:59:52;;;;;;;0.10;0.10;;;;;;;10.81;73.25;100024.41;4959321;28;20510;-71
2023/10/03 06:02:18;;;;;;;0.17;0.17;;;;;;;10.86;73.52;100027.16;4950129;28;20428;-71
2023/10/03 06:04:46;;;;;;;0.20;0.20;;;;;;;10.92;72.04;100026.06;4955202;28;20051;-71
2023/10/03 06:07:12;;;;;;;0.10;0.10;;;;;;;10.76;69.93;100026.03;4956457;28;20050;-71
2023/10/03 06:09:38;;;;;;;0.10;0.10;;;;;;;10.64;69.39;100025.47;4952963;28;20046;-72
2023/10/03 06:12:06;;;;;;;0.10;0.10;;;;;;;10.71;68.55;100034.25;4946296;28;20046;-72
2023/10/03 06:14:33;;;;;;;0.20;0.20;;;;;;;10.70;67.09;100035.34;4962792;28;20047;-70
2023/10/03 06:16:59;;;;;;;0.20;0.20;;;;;;;10.66;67.30;100033.41;4966484;28;20062;-71
2023/10/03 06:19:26;;;;;;;0.10;0.10;;;;;;;10.71;66.85;100020.56;4966288;28;20247;-71
2023/10/03 06:21:56;;;;;;;0.20;0.20;;;;;;;10.74;66.36;100025.50;4955540;28;20047;-72
2023/10/03 06:24:25;;;;;;;0.10;0.10;;;;;;;10.86;65.63;100027.16;4939846;28;20434;-71
2023/10/03 06:26:51;;;;;;;0.20;0.20;;;;;;;10.95;65.42;100030.97;4968394;28;20053;-71
2023/10/03 06:29:20;;;;;;;0.10;0.10;;;;;;;10.98;64.84;100024.16;4947334;28;20506;-71
2023/10/03 06:31:47;;;;;;;0.10;0.10;;;;;;;11.11;63.97;100029.09;4957820;28;20062;-68
2023/10/03 06:34:16;;;;;;;0.10;0.10;;;;;;;11.19;63.72;100027.72;4962067;28;20063;-69
2023/10/03 06:36:43;;;;;;;0.10;0.10;;;;;;;11.23;63.43;100031.56;4958537;28;20057;-69
2023/10/03 06:39:09;;;;;;;0.10;0.10;;;;;;;11.23;62.37;100025.25;4953264;28;20058;-69
2023/10/03 06:41:38;;;;;;;0.10;0.10;;;;;;;11.21;62.06;100023.59;4946471;28;20043;-69
2023/10/03 06:44:05;;;;;;;0.10;0.10;;;;;;;11.24;61.73;100030.47;4959597;28;20058;-69
2023/10/03 06:46:34;;;;;;;0.10;0.10;;;;;;;11.30;62.28;100023.88;4951366;28;20039;-69
2023/10/03 06:49:01;;;;;;;0.20;0.20;;;;;;;11.38;59.77;100027.19;4974578;28;20102;-69
2023/10/03 06:51:27;;;;;;;0.20;0.20;;;;;;;11.32;58.84;100018.97;4958855;28;20047;-69
2023/10/03 06:53:54;;;;;;;0.20;0.20;;;;;;;11.34;59.13;100026.91;4961226;28;20054;-68
2023/10/03 06:56:20;;;;;;;0.10;0.10;;;;;;;11.47;58.69;100020.03;4958098;28;20047;-69
2023/10/03 06:58:46;;;;;;;0.20;0.20;;;;;;;11.79;57.92;100029.88;4959049;28;20582;-69
2023/10/03 07:01:13;;;;;;;0.30;0.30;;;;;;;12.34;56.00;100027.25;4957544;28;20409;-68
2023/10/03 07:03:41;;;;;;;0.47;0.20;;;;;;;12.49;55.06;100031.03;4961694;28;20150;-72
2023/10/03 07:06:08;;;;;;;0.20;0.20;;;;;;;12.67;53.97;100039.72;4974345;28;20043;-71
2023/10/03 07:08:34;;;;;;;0.20;0.20;;;;;;;12.83;53.51;100033.03;4960239;28;20097;-71
2023/10/03 07:11:01;;;;;;;0.20;0.20;;;;;;;13.08;53.11;100025.69;4961580;28;20470;-71
2023/10/03 07:13:27;;;;;;;0.20;0.20;;;;;;;13.55;51.73;100030.81;4970039;28;20141;-72
2023/10/03 07:15:57;;;;;;;0.55;0.30;;;;;;;13.69;51.06;100034.53;4958035;28;20313;-71
2023/10/03 07:18:24;;;;;;;0.20;0.20;;;;;;;13.91;50.87;100035.97;4954747;28;20050;-72
2023/10/03 07:20:52;;;;;;;0.30;0.30;;;;;;;14.25;50.66;100034.19;4968827;28;20138;-72
2023/10/03 07:23:19;;;;;;;0.20;0.20;;;;;;;14.53;49.83;100027.00;4960782;28;20114;-71
2023/10/03 07:25:46;;;;;;;0.30;0.30;;;;;;;14.86;49.36;100010.59;4953633;28;20125;-71
2023/10/03 07:28:13;;;;;;;0.30;0.30;;;;;;;14.83;48.99;100013.94;4952626;28;20058;-72
2023/10/03 07:30:41;;;;;;;0.22;0.22;;;;;;;14.83;48.36;100018.59;4960290;28;20047;-71
2023/10/03 07:33:08;;;;;;;0.30;0.30;;;;;;;14.82;47.97;100016.97;4955957;28;20057;-71
2023/10/03 07:35:37;;;;;;;0.20;0.20;;;;;;;14.71;48.30;100006.09;4955215;28;20414;-69
2023/10/03 07:38:05;;;;;;;0.30;0.30;;;;;;;14.84;48.41;100017.50;4960745;28;20057;-69
2023/10/03 07:40:31;;;;;;;0.30;0.30;;;;;;;15.08;47.87;100020.16;4961037;28;20312;-69
2023/10/03 07:42:59;;;;;;;0.40;0.40;;;;;;;15.35;47.69;100034.31;4962284;28;20050;-68
2023/10/03 07:45:25;;;;;;;0.28;0.22;;;;;;;15.38;46.55;100022.72;4957166;28;20043;-69
2023/10/03 07:47:51;;;;;;;0.30;0.30;;;;;;;15.14;46.77;100023.63;4954311;28;20511;-70
2023/10/03 07:50:18;;;;;;;0.30;0.30;;;;;;;14.93;47.09;100020.38;4922781;28;20073;-70
2023/10/03 07:52:48;;;;;;;0.20;0.20;;;;;;;14.97;47.06;100021.41;4957347;28;20097;-69
2023/10/03 07:55:19;;;;;;;0.20;0.20;;;;;;;14.79;47.40;99990.84;4952013;28;20130;-72
2023/10/03 07:57:46;;;;;;;0.30;0.30;;;;;;;15.03;47.00;100000.97;4954180;28;20051;-72
2023/10/03 08:00:17;;;;;;;0.30;0.30;;;;;;;15.14;46.74;100012.63;4957801;28;20043;-71
2023/10/03 08:02:43;;;;;;;0.20;0.20;;;;;;;15.14;46.92;100018.97;4956772;28;20042;-72
2023/10/03 08:05:11;;;;;;;0.28;0.28;;;;;;;15.21;46.50;100015.00;4954346;28;20491;-72
2023/10/03 08:07:38;;;;;;;0.30;0.30;;;;;;;15.36;46.51;100006.47;4943935;28;20105;-71
2023/10/03 08:10:17;;;;;;;0.30;0.30;;;;;;;15.92;45.34;100009.34;4955029;28;20073;-72
2023/10/03 08:12:52;;;;;;;0.30;0.30;;;;;;;16.40;44.26;100004.53;4940516;28;20141;-72
2023/10/03 08:15:20;;;;;;;0.30;0.30;;;;;;;16.58;43.46;99984.25;4954017;28;20134;-72
2023/10/03 08:17:53;;;;;;;0.30;0.30;;;;;;;16.96;42.63;99993.31;4953283;28;20055;-71
2023/10/03 08:20:27;;;;;;;0.30;0.30;;;;;;;16.81;42.72;99994.50;4957275;28;20051;-68
2023/10/03 08:22:55;;;;;;;0.30;0.30;;;;;;;16.76;42.89;99991.84;4953951;28;20133;-68
2023/10/03 08:25:24;;;;;;;0.30;0.30;;;;;;;17.06;41.91;99987.56;4952926;28;20050;-69
2023/10/03 08:27:55;;;;;;;0.30;0.30;;;;;;;17.35;41.72;99991.00;4955430;28;20122;-70
2023/10/03 08:30:28;;;;;;;0.30;0.30;;;;;;;17.85;40.70;99988.00;4938496;28;20158;-69
2023/10/03 08:32:57;;;;;;;0.30;0.30;;;;;;;17.99;40.35;99993.44;4960038;28;20145;-70
2023/10/03 08:35:37;;;;;;;0.40;0.40;;;;;;;17.98;39.89;99986.25;4950961;28;20057;-69
2023/10/03 08:38:06;;;;;;;0.40;0.40;;;;;;;17.92;40.01;99997.78;4938882;28;20086;-69
2023/10/03 08:40:38;;;;;;;0.30;0.30;;;;;;;18.45;39.40;99990.47;4953060;28;20047;-68
2023/10/03 08:43:10;;;;;;;0.30;0.30;;;;;;;18.95;38.78;99983.63;4951497;28;20083;-69
2023/10/03 08:45:40;;;;;;;0.30;0.30;;;;;;;18.22;39.51;99973.97;4961535;28;20046;-69
2023/10/03 08:48:07;;;;;;;0.20;0.20;;;;;;;17.15;41.40;99971.06;4956312;28;20055;-68
2023/10/03 08:50:39;;;;;;;0.30;0.30;;;;;;;16.91;42.72;99976.88;4952205;28;20047;-70
2023/10/03 08:53:26;;;;;;;0.20;0.20;;;;;;;16.58;43.13;99981.47;4961971;28;20082;-68
2023/10/03 08:56:03;;;;;;;0.30;0.30;;;;;;;16.54;43.57;99974.13;4972889;28;20058;-68
2023/10/03 08:58:32;;;;;;;0.55;0.30;;;;;;;16.75;43.41;99981.94;4951718;28;20054;-68
2023/10/03 09:01:04;;;;;;;0.30;0.30;;;;;;;16.96;42.99;99973.97;4953712;28;20506;-69
2023/10/03 09:03:47;;;;;;;0.30;0.30;;;;;;;16.74;42.94;99972.84;4950888;28;20047;-69
2023/10/03 09:06:19;;;;;;;0.30;0.30;;;;;;;16.51;43.23;99969.25;4954365;28;20640;-68
2023/10/03 09:08:48;;;;;;;0.40;0.40;;;;;;;16.24;44.00;99971.75;4961614;28;20133;-68
2023/10/03 09:11:14;;;;;;;0.30;0.30;;;;;;;16.35;44.19;99974.28;4950051;28;20051;-70
2023/10/03 09:13:45;;;;;;;0.30;0.30;;;;;;;16.28;44.69;99974.69;4962454;28;20238;-71
2023/10/03 09:16:14;;;;;;;0.30;0.30;;;;;;;16.52;44.17;99979.94;4943029;28;20058;-71
2023/10/03 09:18:41;;;;;;;0.45;0.45;;;;;;;16.37;44.09;99974.78;4949405;28;20046;-68
2023/10/03 09:21:14;;;;;;;0.40;0.40;;;;;;;16.36;44.52;99951.06;4949160;28;20070;-68
2023/10/03 09:24:01;;;;;;;0.50;0.50;;;;;;;17.09;43.30;99970.38;4945895;28;20077;-70
2023/10/03 09:26:46;;;;;;;0.43;0.43;;;;;;;18.05;41.60;99958.16;4926476;28;20380;-71
2023/10/03 09:29:29;;;;;;;0.40;0.40;;;;;;;18.25;40.47;99948.41;4969189;28;20073;-71
2023/10/03 09:31:57;;;;;;;0.50;0.50;;;;;;;18.52;40.77;99938.19;4937396;28;20053;-69
2023/10/03 09:34:30;;;;;;;0.50;0.50;;;;;;;19.31;38.94;99937.31;4950559;28;20047;-71
2023/10/03 09:37:02;;;;;;;0.50;0.50;;;;;;;19.57;38.57;99936.41;4952405;28;20047;-71
2023/10/03 09:39:29;;;;;;;0.50;0.50;;;;;;;19.67;38.11;99936.03;4938225;28;20053;-71
2023/10/03 09:41:57;;;;;;;0.50;0.50;;;;;;;19.33;38.59;99929.47;4950717;28;20050;-71
2023/10/03 09:44:29;;;;;;;0.50;0.50;;;;;;;19.33;38.53;99932.25;4955664;28;20493;-71
2023/10/03 09:47:00;;;;;;;0.50;0.50;;;;;;;19.34;38.09;99928.31;4953565;28;20141;-71
2023/10/03 09:49:36;;;;;;;0.40;0.40;;;;;;;19.63;38.17;99918.44;4956680;28;20059;-71
2023/10/03 09:52:07;;;;;;;0.40;0.40;;;;;;;20.48;36.80;99914.97;4956513;28;20051;-71
2023/10/03 09:54:35;;;;;;;0.40;0.40;;;;;;;20.21;36.09;99886.59;4955287;28;20134;-72
2023/10/03 09:57:15;;;;;;;0.50;0.50;;;;;;;19.89;37.33;99917.50;4958590;28;20070;-72
2023/10/03 09:59:46;;;;;;;0.40;0.40;;;;;;;20.15;36.90;99912.94;4951929;28;20134;-72
2023/10/03 10:02:14;;;;;;;0.40;0.40;;;;;;;20.39;36.39;99912.28;4935780;28;20133;-69
2023/10/03 10:04:43;;;;;;;0.30;0.30;;;;;;;20.45;36.23;99899.84;4950991;28;20051;-71
2023/10/03 10:07:16;;;;;;;0.40;0.40;;;;;;;19.85;36.88;99905.44;4953243;28;20039;-71
2023/10/03 10:09:54;;;;;;;0.50;0.50;;;;;;;19.08;38.02;99892.38;4954051;28;20046;-72
2023/10/03 10:12:22;;;;;;;0.30;0.30;;;;;;;18.76;39.06;99897.31;4952821;28;20097;-71
2023/10/03 10:17:49;;;;;;;0.30;0.30;;;;;;;19.50;37.61;99898.09;4938492;28;20298;-71
2023/10/03 10:20:21;;;;;;;0.20;0.20;;;;;;;17.97;40.56;99892.53;4931656;28;20533;-71
2023/10/03 10:23:16;;;;;;;0.30;0.30;;;;;;;16.82;41.96;99891.22;4951888;28;20050;-71
2023/10/03 10:25:56;;;;;;;0.30;0.30;;;;;;;16.28;44.08;99902.97;4953808;28;20469;-71
2023/10/03 10:28:30;;;;;;;0.30;0.30;;;;;;;16.17;44.35;99902.38;4950013;28;20042;-72
2023/10/03 10:31:24;;;;;;;0.20;0.20;;;;;;;15.88;44.96;99898.84;4970283;28;20066;-69
2023/10/03 10:34:36;;;;;;;0.25;0.25;;;;;;;16.25;44.59;99892.56;4957529;28;20578;-70
2023/10/03 10:37:27;;;;;;;0.30;0.30;;;;;;;16.58;43.77;99889.56;4948401;28;20055;-69
2023/10/03 10:43:01;;;;;;;0.55;0.55;;;;;;;19.24;39.06;99879.59;4947025;28;20066;-69
2023/10/03 10:45:37;;;;;;;0.30;0.30;;;;;;;19.81;37.76;99879.50;4951933;28;20048;-72
2023/10/03 10:48:06;;;;;;;;;;;;;;;19.92;37.82;99877.19;4956339;28;20047;-72
2023/10/03 10:51:09;;;;;;;0.30;0.30;;;;;;;20.67;36.25;99867.28;4954082;28;19926;-71
2023/10/03 10:53:38;;;;;;;0.50;0.50;;;;;;;19.75;37.87;99869.75;4950489;28;20062;-72
2023/10/03 10:56:08;;;;;;;0.60;0.60;;;;;;;20.73;36.44;99871.47;4948142;28;20056;-69
2023/10/03 10:58:50;;;;;;;0.70;0.70;;;;;;;22.23;33.60;99870.41;4952701;28;20073;-69
2023/10/03 11:01:19;;;;;;;0.30;0.30;;;;;;;21.81;33.60;99870.72;4938460;28;20530;-71
2023/10/03 11:03:48;;;;;;;0.30;0.30;;;;;;;20.14;35.97;99875.25;4947982;28;20050;-69
2023/10/03 11:06:15;;;;;;;0.60;0.60;;;;;;;18.89;38.27;99879.69;4949722;28;20183;-72
2023/10/03 11:08:50;;;;;;;0.70;0.43;;;;;;;19.46;37.38;99863.88;4953113;28;20141;-71
2023/10/03 11:11:20;;;;;;;0.40;0.40;;;;;;;18.50;39.07;99862.97;4953990;28;20558;-71
2023/10/03 11:13:47;;;;;;;0.30;0.30;;;;;;;17.54;40.75;99863.63;4950565;28;20070;-68
2023/10/03 11:16:25;;;;;;;0.40;0.40;;;;;;;17.90;40.31;99867.31;4948008;28;20522;-71
2023/10/03 11:18:56;;;;;;;0.80;0.80;;;;;;;18.33;39.67;99851.91;4955508;28;20125;-71
2023/10/03 11:21:24;;;;;;;0.85;0.85;;;;;;;20.14;36.90;99839.16;4949516;28;20517;-72
2023/10/03 11:24:11;;;;;;;0.90;0.90;;;;;;;21.75;33.42;99850.66;4953028;28;20113;-71
2023/10/03 11:26:45;;;;;;;0.80;0.80;;;;;;;22.11;33.13;99848.16;4951132;28;20137;-69
2023/10/03 11:29:14;;;;;;;0.80;0.80;;;;;;;22.88;31.92;99848.34;4950446;28;20760;-68
2023/10/03 11:31:45;;;;;;;0.80;0.80;;;;;;;22.93;30.97;99851.69;4951434;28;20042;-70
2023/10/03 11:34:39;;;;;;;0.90;0.90;;;;;;;22.80;31.20;99848.16;4938897;28;20425;-71
2023/10/03 11:37:06;;;;;;;0.45;0.45;;;;;;;22.46;31.70;99850.38;4975259;28;20558;-72
2023/10/03 11:39:38;;;;;;;0.80;0.80;;;;;;;21.40;33.18;99865.03;4952862;28;20515;-71
2023/10/03 11:42:22;;;;;;;0.30;0.30;;;;;;;21.05;33.32;99859.91;4961941;28;20079;-71
2023/10/03 11:45:00;;;;;;;0.30;0.30;;;;;;;19.51;36.27;99863.69;4953431;28;20087;-71
2023/10/03 11:47:35;;;;;;;0.80;0.80;;;;;;;19.65;36.50;99871.75;4937657;28;20391;-71
2023/10/03 11:50:06;;;;;;;0.70;0.70;;;;;;;20.48;34.95;99871.38;4928364;28;20331;-71
2023/10/03 11:52:33;;;;;;;0.80;0.80;;;;;;;20.74;34.34;99870.31;4957306;28;20474;-72